createdAt,value
2023-06-10T00:00:13.454Z,0.00
2023-06-10T00:01:13.486Z,0.00
2023-06-10T00:02:13.400Z,0.00
2023-06-10T00:03:13.555Z,0.00
2023-06-10T00:04:13.470Z,0.00
2023-06-10T00:05:13.343Z,0.00
2023-06-10T00:06:13.386Z,0.00
2023-06-10T00:07:13.316Z,0.00
2023-06-10T00:08:13.199Z,0.00
2023-06-10T00:09:13.318Z,0.00
2023-06-10T00:10:13.350Z,0.00
2023-06-10T00:11:13.349Z,0.00
2023-06-10T00:12:13.155Z,0.00
2023-06-10T00:13:13.236Z,0.00
2023-06-10T00:14:13.238Z,0.00
2023-06-10T00:15:13.365Z,0.00
2023-06-10T00:16:13.261Z,0.00
2023-06-10T00:17:13.274Z,0.00
2023-06-10T00:18:13.214Z,0.00
2023-06-10T00:19:13.184Z,0.00
2023-06-10T00:20:13.664Z,0.00
2023-06-10T00:21:13.219Z,0.00
2023-06-10T00:22:13.268Z,0.00
2023-06-10T00:23:13.028Z,0.00
2023-06-10T00:24:13.587Z,0.00
2023-06-10T00:25:13.125Z,0.00
2023-06-10T00:26:13.113Z,0.00
2023-06-10T00:27:13.120Z,0.00
2023-06-10T00:28:13.169Z,0.00
2023-06-10T00:29:13.151Z,0.00
2023-06-10T00:30:12.971Z,0.00
2023-06-10T00:31:13.134Z,0.00
2023-06-10T00:32:13.078Z,0.00
2023-06-10T00:33:13.137Z,0.00
2023-06-10T00:34:13.117Z,0.00
2023-06-10T00:35:13.328Z,0.00
2023-06-10T00:36:13.002Z,0.00
2023-06-10T00:37:12.981Z,0.00
2023-06-10T00:38:13.075Z,0.00
2023-06-10T00:39:12.982Z,0.00
2023-06-10T00:40:12.959Z,0.00
2023-06-10T00:41:12.965Z,0.00
2023-06-10T00:42:12.969Z,0.00
2023-06-10T00:43:12.939Z,0.00
2023-06-10T00:44:12.934Z,0.00
2023-06-10T00:45:13.170Z,0.00
2023-06-10T00:46:12.925Z,0.00
2023-06-10T00:47:12.906Z,0.00
2023-06-10T00:48:12.946Z,0.00
2023-06-10T00:49:12.859Z,0.00
2023-06-10T00:50:12.937Z,0.00
2023-06-10T00:51:12.860Z,0.00
2023-06-10T00:52:12.833Z,0.00
2023-06-10T00:53:12.812Z,0.00
2023-06-10T00:54:12.806Z,0.00
2023-06-10T00:55:12.868Z,0.00
2023-06-10T00:56:12.889Z,0.00
2023-06-10T00:57:12.803Z,0.00
2023-06-10T00:58:12.812Z,0.00
2023-06-10T00:59:12.763Z,0.00
2023-06-10T01:00:12.771Z,0.00
2023-06-10T01:01:12.679Z,0.00
2023-06-10T01:02:12.829Z,0.00
2023-06-10T01:03:12.843Z,0.00
2023-06-10T01:04:12.708Z,0.00
2023-06-10T01:05:12.884Z,0.00
2023-06-10T01:06:14.678Z,0.00
2023-06-10T01:07:12.771Z,0.00
2023-06-10T01:08:12.662Z,0.00
2023-06-10T01:09:12.669Z,0.00
2023-06-10T01:10:12.643Z,0.00
2023-06-10T01:11:12.720Z,0.00
2023-06-10T01:12:12.729Z,0.00
2023-06-10T01:13:12.611Z,0.00
2023-06-10T01:14:12.606Z,0.00
2023-06-10T01:15:12.607Z,0.00
2023-06-10T01:16:12.611Z,0.00
2023-06-10T01:17:12.802Z,0.00
2023-06-10T01:18:12.707Z,0.00
2023-06-10T01:19:12.574Z,0.00
2023-06-10T01:20:12.440Z,0.00
2023-06-10T01:21:12.550Z,0.00
2023-06-10T01:22:12.572Z,0.00
2023-06-10T01:23:12.616Z,0.00
2023-06-10T01:24:12.558Z,0.00
2023-06-10T01:25:12.522Z,0.00
2023-06-10T01:26:12.503Z,0.00
2023-06-10T01:27:12.498Z,0.00
2023-06-10T01:28:12.580Z,0.00
2023-06-10T01:29:12.474Z,0.00
2023-06-10T01:30:12.474Z,0.00
2023-06-10T01:31:12.527Z,0.00
2023-06-10T01:32:12.437Z,0.00
2023-06-10T01:33:12.433Z,0.00
2023-06-10T01:34:12.474Z,0.00
2023-06-10T01:35:12.524Z,0.00
2023-06-10T01:36:12.374Z,0.00
2023-06-10T01:37:12.367Z,0.00
2023-06-10T01:38:12.376Z,0.00
2023-06-10T01:39:12.455Z,0.00
2023-06-10T01:40:12.223Z,0.00
2023-06-10T01:41:12.321Z,0.00
2023-06-10T01:42:12.333Z,0.00
2023-06-10T01:43:12.330Z,0.00
2023-06-10T01:44:12.380Z,0.00
2023-06-10T01:45:12.315Z,0.00
2023-06-10T01:46:12.360Z,0.00
2023-06-10T01:47:12.304Z,0.00
2023-06-10T01:48:12.415Z,0.00
2023-06-10T01:49:12.357Z,0.00
2023-06-10T01:50:12.309Z,0.00
2023-06-10T01:51:12.268Z,0.00
2023-06-10T01:52:12.171Z,0.00
2023-06-10T01:53:12.235Z,0.00
2023-06-10T01:54:12.227Z,0.00
2023-06-10T01:55:12.347Z,0.00
2023-06-10T01:56:12.183Z,0.00
2023-06-10T01:57:12.197Z,0.00
2023-06-10T01:58:12.163Z,0.00
2023-06-10T01:59:12.160Z,0.00
2023-06-10T02:00:12.070Z,0.00
2023-06-10T02:01:12.093Z,0.00
2023-06-10T02:02:12.144Z,0.00
2023-06-10T02:03:12.294Z,0.00
2023-06-10T02:04:12.037Z,0.00
2023-06-10T02:05:12.285Z,0.00
2023-06-10T02:06:12.094Z,0.00
2023-06-10T02:07:12.200Z,0.00
2023-06-10T02:08:11.942Z,0.00
2023-06-10T02:09:12.072Z,0.00
2023-06-10T02:10:12.047Z,0.00
2023-06-10T02:11:12.029Z,0.00
2023-06-10T02:12:12.039Z,0.00
2023-06-10T02:13:12.000Z,0.00
2023-06-10T02:14:11.890Z,0.00
2023-06-10T02:15:12.179Z,0.00
2023-06-10T02:16:11.992Z,0.00
2023-06-10T02:17:12.050Z,0.00
2023-06-10T02:18:11.977Z,0.00
2023-06-10T02:19:11.952Z,0.00
2023-06-10T02:20:11.978Z,0.00
2023-06-10T02:21:12.012Z,0.00
2023-06-10T02:22:11.998Z,0.00
2023-06-10T02:23:11.867Z,1.00
2023-06-10T02:24:11.915Z,1.00
2023-06-10T02:25:12.110Z,1.00
2023-06-10T02:26:11.887Z,1.00
2023-06-10T02:27:11.911Z,1.00
2023-06-10T02:28:11.827Z,1.00
2023-06-10T02:29:11.787Z,2.00
2023-06-10T02:30:11.817Z,2.00
2023-06-10T02:31:11.768Z,2.00
2023-06-10T02:32:11.917Z,1.00
2023-06-10T02:33:11.860Z,1.00
2023-06-10T02:34:11.699Z,3.00
2023-06-10T02:35:11.857Z,3.00
2023-06-10T02:36:11.707Z,4.00
2023-06-10T02:37:11.706Z,4.00
2023-06-10T02:38:11.822Z,7.00
2023-06-10T02:39:11.700Z,4.00
2023-06-10T02:40:11.762Z,3.00
2023-06-10T02:41:11.706Z,4.00
2023-06-10T02:42:11.722Z,4.00
2023-06-10T02:43:11.724Z,8.00
2023-06-10T02:44:11.655Z,14.00
2023-06-10T02:45:11.837Z,9.00
2023-06-10T02:46:11.647Z,10.00
2023-06-10T02:47:11.706Z,14.00
2023-06-10T02:48:11.774Z,20.00
2023-06-10T02:49:11.624Z,16.00
2023-06-10T02:50:11.586Z,17.00
2023-06-10T02:51:11.456Z,26.00
2023-06-10T02:52:11.548Z,23.00
2023-06-10T02:53:11.619Z,22.00
2023-06-10T02:54:11.430Z,26.00
2023-06-10T02:55:11.765Z,32.00
2023-06-10T02:56:11.534Z,36.00
2023-06-10T02:57:11.523Z,39.00
2023-06-10T02:58:11.580Z,43.00
2023-06-10T02:59:11.489Z,44.00
2023-06-10T03:00:11.396Z,52.00
2023-06-10T03:01:11.527Z,55.00
2023-06-10T03:02:11.480Z,58.00
2023-06-10T03:03:11.553Z,68.00
2023-06-10T03:04:11.523Z,73.00
2023-06-10T03:05:12.027Z,72.00
2023-06-10T03:06:11.420Z,75.00
2023-06-10T03:07:11.397Z,87.00
2023-06-10T03:08:11.404Z,94.00
2023-06-10T03:09:11.501Z,101.00
2023-06-10T03:10:11.449Z,109.00
2023-06-10T03:11:11.398Z,114.00
2023-06-10T03:12:11.383Z,125.00
2023-06-10T03:13:11.377Z,135.00
2023-06-10T03:14:11.376Z,141.00
2023-06-10T03:15:11.696Z,151.00
2023-06-10T03:16:11.318Z,160.00
2023-06-10T03:17:11.323Z,168.00
2023-06-10T03:18:11.308Z,178.00
2023-06-10T03:19:11.341Z,187.00
2023-06-10T03:20:11.404Z,198.00
2023-06-10T03:21:11.284Z,210.00
2023-06-10T03:22:11.327Z,221.00
2023-06-10T03:23:11.270Z,235.00
2023-06-10T03:24:11.364Z,253.00
2023-06-10T03:25:11.529Z,263.00
2023-06-10T03:26:11.283Z,276.00
2023-06-10T03:27:11.202Z,293.00
2023-06-10T03:28:11.104Z,304.00
2023-06-10T03:29:11.186Z,319.00
2023-06-10T03:30:11.323Z,330.00
2023-06-10T03:31:11.235Z,345.00
2023-06-10T03:32:11.166Z,360.00
2023-06-10T03:33:11.162Z,378.00
2023-06-10T03:34:11.160Z,397.00
2023-06-10T03:35:11.469Z,412.00
2023-06-10T03:36:11.211Z,430.00
2023-06-10T03:37:11.162Z,445.00
2023-06-10T03:38:11.080Z,464.00
2023-06-10T03:39:11.101Z,478.00
2023-06-10T03:40:11.099Z,487.00
2023-06-10T03:41:11.169Z,508.00
2023-06-10T03:42:11.122Z,528.00
2023-06-10T03:43:10.938Z,554.00
2023-06-10T03:44:11.043Z,587.00
2023-06-10T03:45:11.235Z,612.00
2023-06-10T03:46:10.987Z,632.00
2023-06-10T03:47:10.948Z,652.00
2023-06-10T03:48:11.119Z,674.00
2023-06-10T03:49:10.986Z,696.00
2023-06-10T03:50:10.997Z,725.00
2023-06-10T03:51:10.849Z,752.00
2023-06-10T03:52:11.012Z,777.00
2023-06-10T03:53:10.832Z,801.00
2023-06-10T03:54:10.875Z,828.00
2023-06-10T03:55:11.184Z,857.00
2023-06-10T03:56:10.848Z,886.00
2023-06-10T03:57:10.903Z,914.00
2023-06-10T03:58:10.952Z,937.00
2023-06-10T03:59:10.887Z,966.00
2023-06-10T04:00:10.890Z,997.00
2023-06-10T04:01:10.880Z,1028.00
2023-06-10T04:02:10.872Z,1071.00
2023-06-10T04:03:10.884Z,1105.00
2023-06-10T04:04:10.904Z,1132.00
2023-06-10T04:05:11.015Z,1162.00
2023-06-10T04:06:10.943Z,1181.00
2023-06-10T04:07:10.819Z,1208.00
2023-06-10T04:08:10.774Z,1250.00
2023-06-10T04:09:10.886Z,1288.00
2023-06-10T04:10:10.766Z,1324.00
2023-06-10T04:11:10.763Z,1361.00
2023-06-10T04:12:10.735Z,1389.00
2023-06-10T04:13:10.730Z,1421.00
2023-06-10T04:14:10.818Z,1452.00
2023-06-10T04:15:10.965Z,1478.00
2023-06-10T04:16:10.629Z,1507.00
2023-06-10T04:17:10.747Z,1528.00
2023-06-10T04:18:10.725Z,1573.00
2023-06-10T04:19:10.808Z,1617.00
2023-06-10T04:20:10.701Z,1673.00
2023-06-10T04:21:10.661Z,1711.00
2023-06-10T04:22:10.648Z,1753.00
2023-06-10T04:23:10.568Z,1791.00
2023-06-10T04:24:10.747Z,1825.00
2023-06-10T04:25:10.938Z,1859.00
2023-06-10T04:26:10.495Z,1884.00
2023-06-10T04:27:10.549Z,1918.00
2023-06-10T04:28:10.606Z,1957.00
2023-06-10T04:29:10.576Z,2005.00
2023-06-10T04:30:10.584Z,2058.00
2023-06-10T04:31:10.701Z,2116.00
2023-06-10T04:32:10.558Z,2162.00
2023-06-10T04:33:10.662Z,2213.00
2023-06-10T04:34:10.606Z,2259.00
2023-06-10T04:35:10.762Z,2313.00
2023-06-10T04:36:10.498Z,2366.00
2023-06-10T04:37:10.584Z,2423.00
2023-06-10T04:38:10.487Z,2481.00
2023-06-10T04:39:10.503Z,2524.00
2023-06-10T04:40:10.385Z,2582.00
2023-06-10T04:41:10.334Z,2633.00
2023-06-10T04:42:10.521Z,2676.00
2023-06-10T04:43:10.435Z,2718.00
2023-06-10T04:44:10.299Z,2757.00
2023-06-10T04:45:10.587Z,2795.00
2023-06-10T04:46:10.409Z,2843.00
2023-06-10T04:47:10.411Z,2899.00
2023-06-10T04:48:10.503Z,2967.00
2023-06-10T04:49:10.365Z,3034.00
2023-06-10T04:50:10.377Z,3096.00
2023-06-10T04:51:10.440Z,3146.00
2023-06-10T04:52:10.365Z,3175.00
2023-06-10T04:53:10.324Z,3212.00
2023-06-10T04:54:10.319Z,3250.00
2023-06-10T04:55:10.547Z,3293.00
2023-06-10T04:56:10.347Z,3330.00
2023-06-10T04:57:10.217Z,3369.00
2023-06-10T04:58:10.265Z,3414.00
2023-06-10T04:59:10.180Z,3445.00
2023-06-10T05:00:10.156Z,3469.00
2023-06-10T05:01:10.338Z,3489.00
2023-06-10T05:02:10.367Z,3535.00
2023-06-10T05:03:10.366Z,3570.00
2023-06-10T05:04:10.502Z,3621.00
2023-06-10T05:05:10.271Z,3684.00
2023-06-10T05:06:10.213Z,3756.00
2023-06-10T05:07:10.273Z,3826.00
2023-06-10T05:08:10.056Z,3880.00
2023-06-10T05:09:10.243Z,3936.00
2023-06-10T05:10:10.177Z,3994.00
2023-06-10T05:11:10.143Z,4043.00
2023-06-10T05:12:10.267Z,4111.00
2023-06-10T05:13:10.130Z,4167.00
2023-06-10T05:14:10.183Z,4215.00
2023-06-10T05:15:10.464Z,4274.00
2023-06-10T05:16:10.105Z,4331.00
2023-06-10T05:17:10.078Z,4397.00
2023-06-10T05:18:10.031Z,4463.00
2023-06-10T05:19:10.090Z,4509.00
2023-06-10T05:20:10.187Z,4559.00
2023-06-10T05:21:10.038Z,4623.00
2023-06-10T05:22:10.047Z,4683.00
2023-06-10T05:23:10.014Z,4752.00
2023-06-10T05:24:09.984Z,4801.00
2023-06-10T05:25:10.311Z,4896.00
2023-06-10T05:26:09.903Z,4959.00
2023-06-10T05:27:09.899Z,5039.00
2023-06-10T05:28:10.514Z,5113.00
2023-06-10T05:29:09.842Z,5175.00
2023-06-10T05:30:09.873Z,5226.00
2023-06-10T05:31:09.933Z,5279.00
2023-06-10T05:32:10.156Z,5342.00
2023-06-10T05:33:09.936Z,5405.00
2023-06-10T05:34:09.877Z,5468.00
2023-06-10T05:35:10.186Z,5488.00
2023-06-10T05:36:09.859Z,5549.00
2023-06-10T05:37:09.790Z,5576.00
2023-06-10T05:38:09.788Z,3422.00
2023-06-10T05:39:09.816Z,4780.00
2023-06-10T05:40:09.758Z,14637.00
2023-06-10T05:41:09.944Z,26583.00
2023-06-10T05:42:09.802Z,34268.00
2023-06-10T05:43:09.765Z,33324.00
2023-06-10T05:44:11.331Z,32558.00
2023-06-10T05:45:10.041Z,32384.00
2023-06-10T05:46:09.712Z,29170.00
2023-06-10T05:47:09.735Z,32250.00
2023-06-10T05:48:09.740Z,28306.00
2023-06-10T05:49:09.685Z,30602.00
2023-06-10T05:50:09.814Z,34535.00
2023-06-10T05:51:09.780Z,35957.00
2023-06-10T05:52:09.775Z,35620.00
2023-06-10T05:53:09.854Z,31123.00
2023-06-10T05:54:09.755Z,32972.00
2023-06-10T05:55:10.187Z,32783.00
2023-06-10T05:56:09.779Z,22428.00
2023-06-10T05:57:09.810Z,14166.00
2023-06-10T05:58:09.703Z,8569.00
2023-06-10T05:59:09.762Z,3213.00
2023-06-10T06:00:09.616Z,4496.00
2023-06-10T06:01:09.750Z,11363.00
2023-06-10T06:02:09.700Z,23870.00
2023-06-10T06:03:09.923Z,31712.00
2023-06-10T06:04:09.759Z,71873.00
2023-06-10T06:05:10.244Z,72583.00
2023-06-10T06:06:09.626Z,72429.00
2023-06-10T06:07:09.518Z,72317.00
2023-06-10T06:08:09.668Z,71575.00
2023-06-10T06:09:09.646Z,39425.00
2023-06-10T06:10:09.623Z,72408.00
2023-06-10T06:11:09.584Z,72605.00
2023-06-10T06:12:09.466Z,69853.00
2023-06-10T06:13:09.650Z,43048.00
2023-06-10T06:14:09.547Z,74359.00
2023-06-10T06:15:09.850Z,72644.00
2023-06-10T06:16:09.492Z,70437.00
2023-06-10T06:17:09.527Z,44135.00
2023-06-10T06:18:09.648Z,37100.00
2023-06-10T06:19:09.503Z,33733.00
2023-06-10T06:20:09.491Z,35248.00
2023-06-10T06:21:09.568Z,73494.00
2023-06-10T06:22:09.461Z,73128.00
2023-06-10T06:23:09.353Z,69458.00
2023-06-10T06:24:09.635Z,35543.00
2023-06-10T06:25:09.890Z,18763.00
2023-06-10T06:26:09.450Z,8975.00
2023-06-10T06:27:09.438Z,7368.00
2023-06-10T06:28:09.341Z,7301.00
2023-06-10T06:29:09.485Z,7279.00
2023-06-10T06:30:09.399Z,6014.00
2023-06-10T06:31:09.455Z,2882.00
2023-06-10T06:32:09.400Z,10841.00
2023-06-10T06:33:09.403Z,24139.00
2023-06-10T06:34:09.306Z,35784.00
2023-06-10T06:35:09.899Z,41611.00
2023-06-10T06:36:09.377Z,74061.00
2023-06-10T06:37:09.383Z,73263.00
2023-06-10T06:38:09.334Z,73621.00
2023-06-10T06:39:09.526Z,74901.00
2023-06-10T06:40:09.340Z,71943.00
2023-06-10T06:41:09.383Z,66750.00
2023-06-10T06:42:09.313Z,26113.00
2023-06-10T06:43:09.363Z,15031.00
2023-06-10T06:44:09.270Z,8962.00
2023-06-10T06:45:09.465Z,4225.00
2023-06-10T06:46:09.257Z,10606.00
2023-06-10T06:47:09.266Z,27737.00
2023-06-10T06:48:09.356Z,39911.00
2023-06-10T06:49:09.172Z,71978.00
2023-06-10T06:50:09.226Z,72560.00
2023-06-10T06:51:09.146Z,72199.00
2023-06-10T06:52:09.100Z,73226.00
2023-06-10T06:53:09.193Z,75271.00
2023-06-10T06:54:09.215Z,73868.00
2023-06-10T06:55:09.422Z,71211.00
2023-06-10T06:56:09.187Z,70422.00
2023-06-10T06:57:09.146Z,70087.00
2023-06-10T06:58:09.228Z,44108.00
2023-06-10T06:59:09.137Z,40313.00
2023-06-10T07:00:09.054Z,73217.00
2023-06-10T07:01:09.105Z,72885.00
2023-06-10T07:02:09.253Z,73545.00
2023-06-10T07:03:09.261Z,67269.00
2023-06-10T07:04:09.109Z,26624.00
2023-06-10T07:05:09.348Z,9926.00
2023-06-10T07:06:09.069Z,7155.00
2023-06-10T07:07:09.085Z,7037.00
2023-06-10T07:08:09.134Z,6969.00
2023-06-10T07:09:09.063Z,6915.00
2023-06-10T07:10:09.082Z,6893.00
2023-06-10T07:11:09.044Z,6885.00
2023-06-10T07:12:09.044Z,6871.00
2023-06-10T07:13:09.104Z,6850.00
2023-06-10T07:14:09.076Z,6813.00
2023-06-10T07:15:09.293Z,6767.00
2023-06-10T07:16:08.905Z,6723.00
2023-06-10T07:17:09.019Z,6686.00
2023-06-10T07:18:09.120Z,6674.00
2023-06-10T07:19:08.977Z,6665.00
2023-06-10T07:20:08.986Z,6666.00
2023-06-10T07:21:08.853Z,6676.00
2023-06-10T07:22:08.900Z,6708.00
2023-06-10T07:23:09.037Z,6725.00
2023-06-10T07:24:08.975Z,6734.00
2023-06-10T07:25:09.307Z,6742.00
2023-06-10T07:26:08.898Z,6743.00
2023-06-10T07:27:08.774Z,6740.00
2023-06-10T07:28:08.980Z,6741.00
2023-06-10T07:29:08.955Z,6740.00
2023-06-10T07:30:08.816Z,6728.00
2023-06-10T07:31:08.908Z,6732.00
2023-06-10T07:32:08.782Z,6727.00
2023-06-10T07:33:09.079Z,6726.00
2023-06-10T07:34:08.845Z,6737.00
2023-06-10T07:35:09.066Z,6752.00
2023-06-10T07:36:08.816Z,6769.00
2023-06-10T07:37:08.797Z,6798.00
2023-06-10T07:38:08.807Z,6824.00
2023-06-10T07:39:08.881Z,6855.00
2023-06-10T07:40:08.769Z,6888.00
2023-06-10T07:41:08.777Z,6923.00
2023-06-10T07:42:08.771Z,6964.00
2023-06-10T07:43:08.754Z,7011.00
2023-06-10T07:44:08.737Z,7069.00
2023-06-10T07:45:09.139Z,7109.00
2023-06-10T07:46:08.785Z,7139.00
2023-06-10T07:47:08.735Z,7153.00
2023-06-10T07:48:08.751Z,7158.00
2023-06-10T07:49:08.706Z,7158.00
2023-06-10T07:50:08.786Z,7149.00
2023-06-10T07:51:08.744Z,7152.00
2023-06-10T07:52:08.676Z,7168.00
2023-06-10T07:53:08.689Z,7186.00
2023-06-10T07:54:08.690Z,7225.00
2023-06-10T07:55:09.053Z,7271.00
2023-06-10T07:56:08.716Z,7318.00
2023-06-10T07:57:08.581Z,7351.00
2023-06-10T07:58:08.646Z,7393.00
2023-06-10T07:59:08.602Z,7454.00
2023-06-10T08:00:08.621Z,7525.00
2023-06-10T08:01:08.611Z,7629.00
2023-06-10T08:02:08.673Z,7868.00
2023-06-10T08:03:08.641Z,4036.00
2023-06-10T08:04:08.731Z,6633.00
2023-06-10T08:05:09.089Z,19518.00
2023-06-10T08:06:08.640Z,24234.00
2023-06-10T08:07:08.566Z,26693.00
2023-06-10T08:08:08.561Z,32977.00
2023-06-10T08:09:08.540Z,73750.00
2023-06-10T08:10:08.533Z,75737.00
2023-06-10T08:11:08.507Z,75412.00
2023-06-10T08:12:08.580Z,71310.00
2023-06-10T08:13:08.494Z,66253.00
2023-06-10T08:14:08.495Z,27673.00
2023-06-10T08:15:08.845Z,14478.00
2023-06-10T08:16:08.603Z,8870.00
2023-06-10T08:17:08.524Z,8723.00
2023-06-10T08:18:08.471Z,8693.00
2023-06-10T08:19:08.430Z,8683.00
2023-06-10T08:20:08.445Z,8681.00
2023-06-10T08:21:08.378Z,8659.00
2023-06-10T08:22:08.416Z,8593.00
2023-06-10T08:23:08.464Z,8515.00
2023-06-10T08:24:08.513Z,8444.00
2023-06-10T08:25:08.663Z,8422.00
2023-06-10T08:26:08.357Z,8544.00
2023-06-10T08:27:08.364Z,8880.00
2023-06-10T08:28:08.408Z,9152.00
2023-06-10T08:29:08.354Z,9141.00
2023-06-10T08:30:08.317Z,8969.00
2023-06-10T08:31:08.317Z,8638.00
2023-06-10T08:32:08.377Z,8229.00
2023-06-10T08:33:08.342Z,7857.00
2023-06-10T08:34:08.375Z,7671.00
2023-06-10T08:35:08.664Z,7573.00
2023-06-10T08:36:08.254Z,7527.00
2023-06-10T08:37:08.160Z,7499.00
2023-06-10T08:38:08.150Z,7480.00
2023-06-10T08:39:08.161Z,7460.00
2023-06-10T08:40:08.129Z,7433.00
2023-06-10T08:41:08.302Z,7416.00
2023-06-10T08:42:08.137Z,7437.00
2023-06-10T08:43:08.102Z,7427.00
2023-06-10T08:44:08.126Z,7421.00
2023-06-10T08:45:08.306Z,7436.00
2023-06-10T08:46:08.148Z,7463.00
2023-06-10T08:47:08.067Z,7507.00
2023-06-10T08:48:08.284Z,7592.00
2023-06-10T08:49:08.143Z,6601.00
2023-06-10T08:50:10.808Z,3305.00
2023-06-10T08:51:08.103Z,17695.00
2023-06-10T08:52:07.977Z,31614.00
2023-06-10T08:53:08.018Z,25019.00
2023-06-10T08:54:07.978Z,12187.00
2023-06-10T08:55:08.436Z,8084.00
2023-06-10T08:56:08.011Z,8043.00
2023-06-10T08:57:08.047Z,8126.00
2023-06-10T08:58:07.959Z,8258.00
2023-06-10T08:59:07.947Z,8457.00
2023-06-10T09:00:08.435Z,8609.00
2023-06-10T09:01:08.053Z,8754.00
2023-06-10T09:02:08.089Z,9119.00
2023-06-10T09:03:08.099Z,9364.00
2023-06-10T09:04:07.895Z,9610.00
2023-06-10T09:05:07.923Z,9849.00
2023-06-10T09:06:07.918Z,10101.00
2023-06-10T09:07:07.844Z,10410.00
2023-06-10T09:08:07.971Z,10663.00
2023-06-10T09:09:07.967Z,10940.00
2023-06-10T09:10:08.783Z,11487.00
2023-06-10T09:11:07.865Z,12183.00
2023-06-10T09:12:07.805Z,12572.00
2023-06-10T09:13:07.876Z,8377.00
2023-06-10T09:14:07.879Z,8635.00
2023-06-10T09:15:07.957Z,25490.00
2023-06-10T09:16:07.921Z,72791.00
2023-06-10T09:17:07.867Z,73722.00
2023-06-10T09:18:07.908Z,75404.00
2023-06-10T09:19:07.733Z,76053.00
2023-06-10T09:20:10.359Z,75713.00
2023-06-10T09:21:07.830Z,75467.00
2023-06-10T09:22:07.837Z,73357.00
2023-06-10T09:23:07.739Z,73663.00
2023-06-10T09:24:07.886Z,74694.00
2023-06-10T09:25:07.692Z,73638.00
2023-06-10T09:26:10.426Z,73016.00
2023-06-10T09:27:07.759Z,72730.00
2023-06-10T09:28:07.651Z,74681.00
2023-06-10T09:29:07.754Z,73655.00
2023-06-10T09:30:07.987Z,72698.00
2023-06-10T09:31:07.866Z,74214.00
2023-06-10T09:32:10.381Z,74732.00
2023-06-10T09:33:07.848Z,75833.00
2023-06-10T09:34:07.708Z,75409.00
2023-06-10T09:35:07.591Z,73876.00
2023-06-10T09:36:07.696Z,73735.00
2023-06-10T09:37:07.749Z,73071.00
2023-06-10T09:38:10.559Z,71515.00
2023-06-10T09:39:07.674Z,39893.00
2023-06-10T09:40:07.935Z,38727.00
2023-06-10T09:41:07.658Z,73184.00
2023-06-10T09:42:07.699Z,74755.00
2023-06-10T09:43:07.673Z,74483.00
2023-06-10T09:44:10.074Z,72841.00
2023-06-10T09:45:07.610Z,74517.00
2023-06-10T09:46:07.628Z,73088.00
2023-06-10T09:47:07.574Z,71753.00
2023-06-10T09:48:07.743Z,41561.00
2023-06-10T09:49:07.569Z,41123.00
2023-06-10T09:50:10.953Z,40429.00
2023-06-10T09:51:07.614Z,71861.00
2023-06-10T09:52:07.584Z,43278.00
2023-06-10T09:53:07.535Z,37115.00
2023-06-10T09:54:07.523Z,36802.00
2023-06-10T09:55:07.529Z,37928.00
2023-06-10T09:56:10.455Z,37780.00
2023-06-10T09:57:07.535Z,39826.00
2023-06-10T09:58:07.488Z,39077.00
2023-06-10T09:59:07.524Z,37558.00
2023-06-10T10:00:07.822Z,72841.00
2023-06-10T10:01:07.530Z,72057.00
2023-06-10T10:02:09.024Z,70450.00
2023-06-10T10:03:07.504Z,38020.00
2023-06-10T10:04:07.372Z,38043.00
2023-06-10T10:05:07.741Z,30882.00
2023-06-10T10:06:07.411Z,24624.00
2023-06-10T10:07:07.416Z,17912.00
2023-06-10T10:08:07.444Z,30749.00
2023-06-10T10:09:07.479Z,73336.00
2023-06-10T10:10:07.289Z,70308.00
2023-06-10T10:11:07.378Z,37302.00
2023-06-10T10:12:07.373Z,32082.00
2023-06-10T10:13:07.384Z,26356.00
2023-06-10T10:14:09.889Z,35176.00
2023-06-10T10:15:07.636Z,70295.00
2023-06-10T10:16:07.402Z,38740.00
2023-06-10T10:17:07.565Z,31305.00
2023-06-10T10:18:07.457Z,31390.00
2023-06-10T10:19:07.310Z,35947.00
2023-06-10T10:20:07.273Z,31581.00
2023-06-10T10:21:07.405Z,30566.00
2023-06-10T10:22:07.248Z,29849.00
2023-06-10T10:23:07.191Z,25576.00
2023-06-10T10:24:07.223Z,24999.00
2023-06-10T10:25:07.443Z,28875.00
2023-06-10T10:26:10.386Z,77573.00
2023-06-10T10:27:07.397Z,71526.00
2023-06-10T10:28:07.262Z,39120.00
2023-06-10T10:29:07.139Z,31833.00
2023-06-10T10:30:07.235Z,35208.00
2023-06-10T10:31:07.275Z,72665.00
2023-06-10T10:32:07.398Z,70135.00
2023-06-10T10:33:09.518Z,34404.00
2023-06-10T10:34:07.373Z,32379.00
2023-06-10T10:35:07.600Z,76779.00
2023-06-10T10:36:07.201Z,77214.00
2023-06-10T10:37:07.404Z,69756.00
2023-06-10T10:38:07.087Z,28204.00
2023-06-10T10:39:07.051Z,16860.00
2023-06-10T10:40:07.134Z,12924.00
2023-06-10T10:41:07.138Z,9624.00
2023-06-10T10:42:07.228Z,8525.00
2023-06-10T10:43:07.038Z,7504.00
2023-06-10T10:44:07.072Z,6510.00
2023-06-10T10:45:09.168Z,5539.00
2023-06-10T10:46:07.203Z,4805.00
2023-06-10T10:47:07.054Z,4416.00
2023-06-10T10:48:07.067Z,4214.00
2023-06-10T10:49:06.949Z,4049.00
2023-06-10T10:50:07.165Z,3918.00
2023-06-10T10:51:06.930Z,3821.00
2023-06-10T10:52:07.052Z,3767.00
2023-06-10T10:53:07.099Z,3741.00
2023-06-10T10:54:06.998Z,3726.00
2023-06-10T10:55:07.307Z,3714.00
2023-06-10T10:56:07.076Z,3700.00
2023-06-10T10:57:06.879Z,3689.00
2023-06-10T10:58:06.948Z,3676.00
2023-06-10T10:59:06.900Z,3665.00
2023-06-10T11:00:07.311Z,3651.00
2023-06-10T11:01:07.029Z,3640.00
2023-06-10T11:02:07.048Z,3624.00
2023-06-10T11:03:10.135Z,3614.00
2023-06-10T11:04:06.985Z,3606.00
2023-06-10T11:05:06.952Z,3596.00
2023-06-10T11:06:06.785Z,3590.00
2023-06-10T11:07:06.895Z,3580.00
2023-06-10T11:08:06.835Z,3565.00
2023-06-10T11:09:06.835Z,3553.00
2023-06-10T11:10:06.754Z,3540.00
2023-06-10T11:11:06.798Z,3522.00
2023-06-10T11:12:06.844Z,3505.00
2023-06-10T11:13:06.837Z,3495.00
2023-06-10T11:14:06.881Z,3487.00
2023-06-10T11:15:07.119Z,3476.00
2023-06-10T11:16:06.837Z,3461.00
2023-06-10T11:17:06.791Z,3453.00
2023-06-10T11:18:06.853Z,3439.00
2023-06-10T11:19:06.855Z,3422.00
2023-06-10T11:20:06.755Z,3407.00
2023-06-10T11:21:06.802Z,3398.00
2023-06-10T11:22:06.606Z,3390.00
2023-06-10T11:23:06.694Z,3377.00
2023-06-10T11:24:06.658Z,3369.00
2023-06-10T11:25:06.636Z,3358.00
2023-06-10T11:26:06.574Z,3338.00
2023-06-10T11:27:06.637Z,3320.00
2023-06-10T11:28:06.626Z,3301.00
2023-06-10T11:29:06.654Z,3290.00
2023-06-10T11:30:06.598Z,3274.00
2023-06-10T11:31:06.622Z,3267.00
2023-06-10T11:32:06.846Z,3250.00
2023-06-10T11:33:06.736Z,3235.00
2023-06-10T11:34:06.622Z,3220.00
2023-06-10T11:35:06.564Z,3201.00
2023-06-10T11:36:06.597Z,3185.00
2023-06-10T11:37:06.491Z,3165.00
2023-06-10T11:38:06.607Z,3148.00
2023-06-10T11:39:06.462Z,3137.00
2023-06-10T11:40:06.561Z,3123.00
2023-06-10T11:41:06.574Z,3106.00
2023-06-10T11:42:06.601Z,3085.00
2023-06-10T11:43:06.440Z,3069.00
2023-06-10T11:44:06.366Z,3051.00
2023-06-10T11:45:06.416Z,3038.00
2023-06-10T11:46:06.406Z,3025.00
2023-06-10T11:47:06.360Z,3011.00
2023-06-10T11:48:06.493Z,2995.00
2023-06-10T11:49:06.514Z,2977.00
2023-06-10T11:50:06.499Z,2958.00
2023-06-10T11:51:06.446Z,2945.00
2023-06-10T11:52:06.348Z,2929.00
2023-06-10T11:53:06.425Z,2922.00
2023-06-10T11:54:06.388Z,2910.00
2023-06-10T11:55:07.968Z,2898.00
2023-06-10T11:56:06.264Z,2885.00
2023-06-10T11:57:06.293Z,2874.00
2023-06-10T11:58:06.255Z,2866.00
2023-06-10T11:59:06.336Z,2853.00
2023-06-10T12:00:06.417Z,2840.00
2023-06-10T12:01:06.259Z,2824.00
2023-06-10T12:02:06.229Z,2815.00
2023-06-10T12:03:06.365Z,2803.00
2023-06-10T12:04:06.313Z,2792.00
2023-06-10T12:05:06.423Z,2778.00
2023-06-10T12:06:06.291Z,2766.00
2023-06-10T12:07:06.337Z,2755.00
2023-06-10T12:08:06.242Z,2741.00
2023-06-10T12:09:22.170Z,2727.00
2023-06-10T12:10:22.581Z,2714.00
2023-06-10T12:11:06.141Z,2708.00
2023-06-10T12:12:06.129Z,2698.00
2023-06-10T12:13:06.141Z,2683.00
2023-06-10T12:14:06.115Z,2668.00
2023-06-10T12:15:06.068Z,2652.00
2023-06-10T12:16:06.122Z,2638.00
2023-06-10T12:17:06.065Z,2625.00
2023-06-10T12:18:06.097Z,2614.00